createdAt,value
2017-06-19T00:00:25.071Z,0
2017-06-19T00:01:05.674Z,0
2017-06-19T00:01:46.251Z,0
2017-06-19T00:02:26.824Z,0
2017-06-19T00:03:07.414Z,0
2017-06-19T00:03:48.002Z,0
2017-06-19T00:04:28.587Z,0
2017-06-19T00:05:09.183Z,0
2017-06-19T00:05:49.783Z,0
2017-06-19T00:06:30.367Z,0
2017-06-19T00:07:10.978Z,0
2017-06-19T00:07:51.558Z,0
2017-06-19T00:08:32.130Z,0
2017-06-19T00:09:12.726Z,0
2017-06-19T00:09:53.395Z,0
2017-06-19T00:10:33.962Z,0
2017-06-19T00:11:14.546Z,0
2017-06-19T00:11:55.133Z,0
2017-06-19T00:12:35.725Z,0
2017-06-19T00:13:16.294Z,0
2017-06-19T00:13:56.884Z,0
2017-06-19T00:14:37.559Z,0
2017-06-19T00:15:18.143Z,0
2017-06-19T00:15:58.727Z,0
2017-06-19T00:16:39.394Z,0
2017-06-19T00:17:19.980Z,0
2017-06-19T00:18:03.098Z,0
2017-06-19T00:18:43.689Z,0
2017-06-19T00:19:24.284Z,0
2017-06-19T00:20:04.867Z,0
2017-06-19T00:20:45.450Z,0
2017-06-19T00:21:26.055Z,0
2017-06-19T00:22:06.639Z,0
2017-06-19T00:22:47.222Z,0
2017-06-19T00:23:27.804Z,0
2017-06-19T00:24:08.402Z,0
2017-06-19T00:24:48.999Z,0
2017-06-19T00:25:29.585Z,0
2017-06-19T00:26:10.177Z,0
2017-06-19T00:26:50.765Z,0
2017-06-19T00:27:31.358Z,0
2017-06-19T00:28:11.952Z,0
2017-06-19T00:28:52.538Z,0
2017-06-19T00:29:33.136Z,0
2017-06-19T00:30:13.720Z,0
2017-06-19T00:30:54.299Z,0
2017-06-19T00:31:34.887Z,0
2017-06-19T00:32:15.462Z,0
2017-06-19T00:32:56.042Z,0
2017-06-19T00:33:36.621Z,0
2017-06-19T00:34:17.197Z,0
2017-06-19T00:34:57.778Z,0
2017-06-19T00:35:38.361Z,0
2017-06-19T00:36:18.941Z,0
2017-06-19T00:36:59.544Z,0
2017-06-19T00:37:40.124Z,0
2017-06-19T00:38:20.719Z,0
2017-06-19T00:39:01.313Z,0
2017-06-19T00:39:42.043Z,0
2017-06-19T00:40:22.627Z,0
2017-06-19T00:41:03.206Z,0
2017-06-19T00:41:43.811Z,0
2017-06-19T00:42:24.395Z,0
2017-06-19T00:43:04.974Z,0
2017-06-19T00:43:45.568Z,0
2017-06-19T00:44:26.152Z,0
2017-06-19T00:45:06.746Z,0
2017-06-19T00:45:47.322Z,0
2017-06-19T00:46:27.902Z,0
2017-06-19T00:47:08.509Z,0
2017-06-19T00:47:49.111Z,0
2017-06-19T00:48:29.684Z,0
2017-06-19T00:49:10.284Z,0
2017-06-19T00:49:50.867Z,0
2017-06-19T00:50:31.452Z,0
2017-06-19T00:51:12.033Z,0
2017-06-19T00:51:52.619Z,0
2017-06-19T00:52:33.198Z,0
2017-06-19T00:53:13.773Z,0
2017-06-19T00:53:54.367Z,0
2017-06-19T00:54:34.953Z,0
2017-06-19T00:55:15.532Z,0
2017-06-19T00:55:56.118Z,0
2017-06-19T00:56:36.694Z,0
2017-06-19T00:57:17.278Z,0
2017-06-19T00:57:57.871Z,0
2017-06-19T00:58:38.475Z,0
2017-06-19T00:59:19.064Z,0
2017-06-19T00:59:59.646Z,0
2017-06-19T01:00:40.255Z,0
2017-06-19T01:01:20.847Z,0
2017-06-19T01:02:01.443Z,0
2017-06-19T01:02:42.020Z,0
2017-06-19T01:03:22.603Z,0
2017-06-19T01:04:03.192Z,0
2017-06-19T01:04:43.790Z,0
2017-06-19T01:05:24.379Z,0
2017-06-19T01:06:04.973Z,0
2017-06-19T01:06:45.564Z,0
2017-06-19T01:07:26.172Z,0
2017-06-19T01:08:06.766Z,0
2017-06-19T01:08:47.360Z,0
2017-06-19T01:09:27.960Z,0
2017-06-19T01:10:08.523Z,0
2017-06-19T01:10:49.105Z,0
2017-06-19T01:11:29.693Z,0
2017-06-19T01:12:10.283Z,0
2017-06-19T01:12:50.961Z,0
2017-06-19T01:13:31.556Z,0
2017-06-19T01:14:12.150Z,0
2017-06-19T01:14:52.733Z,0
2017-06-19T01:15:33.313Z,0
2017-06-19T01:16:13.909Z,0
2017-06-19T01:16:54.475Z,0
2017-06-19T01:17:35.061Z,0
2017-06-19T01:18:15.667Z,0
2017-06-19T01:18:56.302Z,0
2017-06-19T01:19:36.956Z,0
2017-06-19T01:20:17.537Z,0
2017-06-19T01:20:58.133Z,0
2017-06-19T01:21:38.719Z,0
2017-06-19T01:22:19.308Z,0
2017-06-19T01:22:59.885Z,0
2017-06-19T01:23:40.470Z,0
2017-06-19T01:24:21.056Z,0
2017-06-19T01:25:01.669Z,0
2017-06-19T01:25:42.259Z,0
2017-06-19T01:26:22.837Z,0
2017-06-19T01:27:03.496Z,0
2017-06-19T01:27:44.070Z,0
2017-06-19T01:28:24.667Z,0
2017-06-19T01:29:05.252Z,0
2017-06-19T01:29:45.832Z,0
2017-06-19T01:30:26.421Z,0
2017-06-19T01:31:07.026Z,0
2017-06-19T01:31:47.641Z,0
2017-06-19T01:32:28.213Z,0
2017-06-19T01:33:08.804Z,0
2017-06-19T01:33:49.398Z,0
2017-06-19T01:34:29.976Z,0
2017-06-19T01:35:10.579Z,0
2017-06-19T01:35:51.163Z,0
2017-06-19T01:36:31.749Z,0
2017-06-19T01:37:12.322Z,0
2017-06-19T01:37:52.906Z,0
2017-06-19T01:38:33.478Z,0
2017-06-19T01:39:14.114Z,0
2017-06-19T01:39:54.709Z,0
2017-06-19T01:40:35.300Z,0
2017-06-19T01:41:15.895Z,0
2017-06-19T01:41:56.556Z,0
2017-06-19T01:42:37.118Z,0
2017-06-19T01:43:17.742Z,0
2017-06-19T01:43:58.339Z,0
2017-06-19T01:44:38.952Z,0
2017-06-19T01:45:19.541Z,0
2017-06-19T01:46:00.127Z,0
2017-06-19T01:46:40.706Z,0
2017-06-19T01:47:21.289Z,0
2017-06-19T01:48:01.882Z,0
2017-06-19T01:48:42.471Z,0
2017-06-19T01:49:23.052Z,0
2017-06-19T01:50:03.644Z,0
2017-06-19T01:50:44.221Z,0
2017-06-19T01:51:24.809Z,0
2017-06-19T01:52:05.393Z,0
2017-06-19T01:52:45.972Z,0
2017-06-19T01:53:26.553Z,0
2017-06-19T01:54:07.164Z,0
2017-06-19T01:54:47.751Z,0
2017-06-19T01:55:28.333Z,0
2017-06-19T01:56:08.962Z,0
2017-06-19T01:56:49.560Z,0
2017-06-19T01:57:30.138Z,0
2017-06-19T01:58:10.744Z,0
2017-06-19T01:58:51.312Z,0
2017-06-19T01:59:31.901Z,0
2017-06-19T02:00:12.475Z,0
2017-06-19T02:00:53.068Z,0
2017-06-19T02:01:33.676Z,0
2017-06-19T02:02:14.287Z,0
2017-06-19T02:02:54.887Z,0
2017-06-19T02:03:35.502Z,0
2017-06-19T02:04:16.083Z,0
2017-06-19T02:04:56.663Z,0
2017-06-19T02:05:37.245Z,0
2017-06-19T02:06:17.850Z,0
2017-06-19T02:06:58.433Z,0
2017-06-19T02:07:39.022Z,0
2017-06-19T02:08:19.638Z,0
2017-06-19T02:09:00.223Z,0
2017-06-19T02:09:40.805Z,0
2017-06-19T02:10:21.383Z,0
2017-06-19T02:11:01.970Z,0
2017-06-19T02:11:42.566Z,0
2017-06-19T02:12:23.165Z,0
2017-06-19T02:13:03.753Z,0
2017-06-19T02:13:44.387Z,0
2017-06-19T02:14:24.972Z,0
2017-06-19T02:15:05.585Z,0
2017-06-19T02:15:46.178Z,0
2017-06-19T02:16:26.767Z,0
2017-06-19T02:17:07.342Z,0
2017-06-19T02:17:47.952Z,0
2017-06-19T02:18:28.550Z,0
2017-06-19T02:19:09.136Z,0
2017-06-19T02:19:49.725Z,0
2017-06-19T02:22:10.075Z,0
2017-06-19T02:22:50.695Z,0
2017-06-19T02:23:31.285Z,0
2017-06-19T02:24:11.853Z,0
2017-06-19T02:24:52.428Z,0
2017-06-19T02:25:33.075Z,0
2017-06-19T02:26:13.693Z,0
2017-06-19T02:26:54.264Z,0
2017-06-19T02:27:34.881Z,0
2017-06-19T02:28:15.447Z,0
2017-06-19T02:28:56.068Z,0
2017-06-19T02:29:36.647Z,0
2017-06-19T02:30:17.229Z,0
2017-06-19T02:30:57.808Z,0
2017-06-19T02:31:38.383Z,0
2017-06-19T02:32:18.952Z,0
2017-06-19T02:32:59.524Z,0
2017-06-19T02:33:40.169Z,0
2017-06-19T02:34:20.732Z,0
2017-06-19T02:35:01.323Z,0
2017-06-19T02:35:41.903Z,0
2017-06-19T02:36:22.492Z,0
2017-06-19T02:37:03.085Z,0
2017-06-19T02:37:43.654Z,0
2017-06-19T02:38:24.228Z,0
2017-06-19T02:39:04.806Z,0
2017-06-19T02:39:45.384Z,0
2017-06-19T02:40:25.969Z,0
2017-06-19T02:41:06.546Z,0
2017-06-19T02:41:47.150Z,0
2017-06-19T02:42:27.734Z,0
2017-06-19T02:43:08.314Z,0
2017-06-19T02:43:48.900Z,0
2017-06-19T02:44:29.491Z,0
2017-06-19T02:45:10.068Z,0
2017-06-19T02:45:50.650Z,0
2017-06-19T02:46:31.230Z,0
2017-06-19T02:47:11.815Z,0
2017-06-19T02:47:52.395Z,0
2017-06-19T02:48:32.980Z,0
2017-06-19T02:49:13.564Z,0
2017-06-19T02:49:54.155Z,0
2017-06-19T02:50:34.742Z,5
2017-06-19T02:51:15.344Z,5
2017-06-19T02:51:55.974Z,5
2017-06-19T02:52:36.585Z,5
2017-06-19T02:53:17.172Z,5
2017-06-19T02:53:57.752Z,5
2017-06-19T02:54:38.351Z,5
2017-06-19T02:55:18.939Z,5
2017-06-19T02:55:59.524Z,5
2017-06-19T02:56:40.112Z,5
2017-06-19T02:57:20.689Z,5
2017-06-19T02:58:01.272Z,5
2017-06-19T02:58:41.846Z,5
2017-06-19T02:59:22.436Z,5
2017-06-19T03:00:03.022Z,5
2017-06-19T03:00:43.609Z,5
2017-06-19T03:01:24.180Z,5
2017-06-19T03:02:04.774Z,5
2017-06-19T03:02:45.367Z,5
2017-06-19T03:03:25.957Z,5
2017-06-19T03:04:06.551Z,5
2017-06-19T03:04:47.137Z,5
2017-06-19T03:05:27.732Z,10
2017-06-19T03:06:08.322Z,10
2017-06-19T03:06:48.912Z,10
2017-06-19T03:07:29.500Z,10
2017-06-19T03:08:10.111Z,10
2017-06-19T03:08:50.703Z,10
2017-06-19T03:09:31.278Z,10
2017-06-19T03:10:11.860Z,10
2017-06-19T03:10:52.466Z,10
2017-06-19T03:11:33.119Z,10
2017-06-19T03:12:13.735Z,10
2017-06-19T03:12:54.323Z,10
2017-06-19T03:13:34.907Z,10
2017-06-19T03:14:15.495Z,10
2017-06-19T03:14:56.070Z,10
2017-06-19T03:15:36.670Z,10
2017-06-19T03:16:17.245Z,10
2017-06-19T03:16:57.867Z,10
2017-06-19T03:17:38.456Z,15
2017-06-19T03:18:19.041Z,15
2017-06-19T03:18:59.699Z,15
2017-06-19T03:19:40.276Z,15
2017-06-19T03:20:20.864Z,15
2017-06-19T03:21:01.461Z,15
2017-06-19T03:21:42.052Z,15
2017-06-19T03:22:22.693Z,15
2017-06-19T03:23:03.280Z,15
2017-06-19T03:23:43.862Z,15
2017-06-19T03:24:24.451Z,15
2017-06-19T03:25:05.034Z,15
2017-06-19T03:25:45.625Z,15
2017-06-19T03:26:26.213Z,15
2017-06-19T03:27:06.799Z,15
2017-06-19T03:27:47.383Z,15
2017-06-19T03:28:27.968Z,15
2017-06-19T03:29:08.558Z,20
2017-06-19T03:29:49.153Z,20
2017-06-19T03:30:29.724Z,20
2017-06-19T03:31:10.354Z,20
2017-06-19T03:31:50.940Z,20
2017-06-19T03:32:31.513Z,20
2017-06-19T03:33:12.100Z,20
2017-06-19T03:33:52.696Z,20
2017-06-19T03:34:33.286Z,20
2017-06-19T03:35:13.878Z,20
2017-06-19T03:35:54.488Z,20
2017-06-19T03:36:35.083Z,20
2017-06-19T03:37:15.791Z,20
2017-06-19T03:37:56.392Z,20
2017-06-19T03:38:37.013Z,25
2017-06-19T03:39:17.613Z,25
2017-06-19T03:39:58.193Z,25
2017-06-19T03:40:38.786Z,25
2017-06-19T03:41:19.371Z,25
2017-06-19T03:41:59.959Z,25
2017-06-19T03:42:40.540Z,25
2017-06-19T03:43:21.124Z,25
2017-06-19T03:44:01.731Z,25
2017-06-19T03:44:42.318Z,25
2017-06-19T03:45:22.917Z,25
2017-06-19T03:46:03.516Z,25
2017-06-19T03:46:44.111Z,25
2017-06-19T03:47:24.688Z,25
2017-06-19T03:48:05.290Z,30
2017-06-19T03:48:45.868Z,30
2017-06-19T03:49:26.561Z,30
2017-06-19T03:50:07.084Z,30
2017-06-19T03:50:47.656Z,30
2017-06-19T03:51:28.243Z,30
2017-06-19T03:52:08.834Z,30
2017-06-19T03:52:49.432Z,30
2017-06-19T03:53:30.032Z,30
2017-06-19T03:54:10.619Z,30
2017-06-19T03:54:51.208Z,30
2017-06-19T03:55:31.793Z,30
2017-06-19T03:56:12.431Z,30
2017-06-19T03:56:53.009Z,30
2017-06-19T03:57:33.675Z,35
2017-06-19T03:58:14.319Z,35
2017-06-19T03:58:54.895Z,35
2017-06-19T03:59:35.487Z,35
2017-06-19T04:00:16.086Z,35
2017-06-19T04:00:56.668Z,35
2017-06-19T04:01:37.277Z,35
2017-06-19T04:02:17.857Z,35
2017-06-19T04:02:58.461Z,35
2017-06-19T04:03:39.087Z,35
2017-06-19T04:04:19.689Z,35
2017-06-19T04:05:00.278Z,35
2017-06-19T04:05:40.874Z,40
2017-06-19T04:06:21.462Z,40
2017-06-19T04:07:02.064Z,40
2017-06-19T04:07:42.648Z,40
2017-06-19T04:08:23.255Z,40
2017-06-19T04:09:03.845Z,40
2017-06-19T04:09:44.451Z,40
2017-06-19T04:10:25.035Z,40
2017-06-19T04:11:05.723Z,40
2017-06-19T04:11:46.313Z,40
2017-06-19T04:12:26.944Z,40
2017-06-19T04:13:07.528Z,45
2017-06-19T04:13:48.238Z,45
2017-06-19T04:14:28.818Z,45
2017-06-19T04:15:09.400Z,45
2017-06-19T04:15:49.982Z,45
2017-06-19T04:16:30.559Z,45
2017-06-19T04:17:11.143Z,45
2017-06-19T04:17:51.727Z,45
2017-06-19T04:18:32.315Z,45
2017-06-19T04:19:12.925Z,45
2017-06-19T04:19:53.506Z,45
2017-06-19T04:20:34.105Z,45
2017-06-19T04:21:14.713Z,45
2017-06-19T04:21:55.299Z,50
2017-06-19T04:22:35.883Z,50
2017-06-19T04:23:16.481Z,50
2017-06-19T04:23:57.095Z,50
2017-06-19T04:24:37.691Z,50
2017-06-19T04:25:18.266Z,50
2017-06-19T04:25:58.853Z,50
2017-06-19T04:26:39.448Z,50
2017-06-19T04:27:20.034Z,50
2017-06-19T04:28:00.663Z,50
2017-06-19T04:28:41.243Z,50
2017-06-19T04:29:21.837Z,55
2017-06-19T04:30:02.432Z,55
2017-06-19T04:30:43.011Z,55
2017-06-19T04:31:23.617Z,55
2017-06-19T04:32:04.199Z,55
2017-06-19T04:32:44.817Z,55
2017-06-19T04:33:25.400Z,55
2017-06-19T04:34:06.018Z,55
2017-06-19T04:34:46.593Z,55
2017-06-19T04:35:27.227Z,55
2017-06-19T04:36:07.811Z,60
2017-06-19T04:36:48.389Z,60
2017-06-19T04:37:28.976Z,60
2017-06-19T04:38:09.553Z,60
2017-06-19T04:38:50.145Z,60
2017-06-19T04:39:30.757Z,60
2017-06-19T04:40:11.360Z,60
2017-06-19T04:40:51.965Z,60
2017-06-19T04:41:32.591Z,65
2017-06-19T04:42:13.173Z,65
2017-06-19T04:42:53.781Z,65
2017-06-19T04:43:34.379Z,65
2017-06-19T04:44:14.968Z,65
2017-06-19T04:44:55.562Z,65
2017-06-19T04:45:36.137Z,65
2017-06-19T04:46:16.732Z,65
2017-06-19T04:46:57.360Z,70
2017-06-19T04:47:37.964Z,70
2017-06-19T04:48:18.547Z,70
2017-06-19T04:48:59.195Z,70
2017-06-19T04:49:39.787Z,70
2017-06-19T04:50:20.384Z,70
2017-06-19T04:51:00.973Z,70
2017-06-19T04:51:41.567Z,70
2017-06-19T04:52:22.157Z,70
2017-06-19T04:53:02.760Z,70
2017-06-19T04:53:43.346Z,75
2017-06-19T04:54:23.976Z,75
2017-06-19T04:55:04.570Z,75
2017-06-19T04:55:45.148Z,75
2017-06-19T04:56:25.752Z,75
2017-06-19T04:57:06.347Z,75
2017-06-19T04:57:46.934Z,80
2017-06-19T04:58:27.509Z,80
2017-06-19T04:59:08.106Z,80
2017-06-19T04:59:48.742Z,80
2017-06-19T05:00:29.350Z,85
2017-06-19T05:01:09.926Z,85
2017-06-19T05:01:50.539Z,200
2017-06-19T05:02:31.179Z,450
2017-06-19T05:03:11.755Z,740
2017-06-19T05:03:52.334Z,1055
2017-06-19T05:04:32.950Z,1310
2017-06-19T05:05:13.565Z,1415
2017-06-19T05:05:54.178Z,1410
2017-06-19T05:06:34.743Z,1455
2017-06-19T05:07:15.398Z,1500
2017-06-19T05:07:55.974Z,1535
2017-06-19T05:08:36.548Z,1540
2017-06-19T05:09:17.147Z,1485
2017-06-19T05:09:57.735Z,1255
2017-06-19T05:10:38.351Z,815
2017-06-19T05:11:18.989Z,365
2017-06-19T05:11:59.578Z,110
2017-06-19T05:12:40.151Z,95
2017-06-19T05:13:20.729Z,95
2017-06-19T05:14:01.329Z,145
2017-06-19T05:14:41.935Z,390
2017-06-19T05:15:22.518Z,890
2017-06-19T05:16:03.106Z,1360
2017-06-19T05:16:43.702Z,1580
2017-06-19T05:17:24.273Z,1605
2017-06-19T05:18:04.851Z,1590
2017-06-19T05:18:45.475Z,1540
2017-06-19T05:19:26.057Z,1475
2017-06-19T05:20:06.735Z,1510
2017-06-19T05:20:47.323Z,1545
2017-06-19T05:21:27.911Z,1560
2017-06-19T05:22:08.498Z,1580
2017-06-19T05:22:49.103Z,1570
2017-06-19T05:23:29.705Z,1590
2017-06-19T05:24:10.286Z,1590
2017-06-19T05:24:50.950Z,1640
2017-06-19T05:25:31.540Z,1680
2017-06-19T05:26:12.142Z,1775
2017-06-19T05:26:52.725Z,1800
2017-06-19T05:27:33.328Z,1730
2017-06-19T05:28:13.912Z,1645
2017-06-19T05:28:54.559Z,1515
2017-06-19T05:29:35.189Z,1480
2017-06-19T05:30:15.779Z,1600
2017-06-19T05:30:56.390Z,1700
2017-06-19T05:31:36.979Z,1775
2017-06-19T05:32:17.592Z,1745
2017-06-19T05:32:58.174Z,1690
2017-06-19T05:33:38.801Z,1705
2017-06-19T05:34:19.379Z,1730
2017-06-19T05:34:59.963Z,1755
2017-06-19T05:35:40.543Z,1715
2017-06-19T05:36:21.162Z,1690
2017-06-19T05:37:01.807Z,1730
2017-06-19T05:37:42.439Z,1700
2017-06-19T05:38:23.026Z,1660
2017-06-19T05:39:03.641Z,1680
2017-06-19T05:39:44.255Z,1835
2017-06-19T05:40:24.838Z,1805
2017-06-19T05:41:05.422Z,1740
2017-06-19T05:41:46.024Z,1720
2017-06-19T05:42:26.608Z,1840
2017-06-19T05:43:07.209Z,1900
2017-06-19T05:43:47.825Z,1885
2017-06-19T05:44:28.574Z,1895
2017-06-19T05:45:09.170Z,1875
2017-06-19T05:45:49.759Z,1880
2017-06-19T05:46:30.341Z,1865
2017-06-19T05:47:10.930Z,1845
2017-06-19T05:47:51.511Z,1795
2017-06-19T05:48:32.087Z,1765
2017-06-19T05:49:12.672Z,1835
2017-06-19T05:49:53.254Z,1850
2017-06-19T05:50:33.858Z,1815
2017-06-19T05:51:14.510Z,1855
2017-06-19T05:51:55.106Z,1870
2017-06-19T05:52:35.777Z,1815
2017-06-19T05:53:16.359Z,1700
2017-06-19T05:53:56.961Z,1690
2017-06-19T05:54:37.565Z,1805
2017-06-19T05:55:18.164Z,1870
2017-06-19T05:55:58.762Z,1875
2017-06-19T05:56:39.352Z,1815
2017-06-19T05:57:23.838Z,1700
2017-06-19T05:58:04.429Z,1670
2017-06-19T05:58:45.052Z,1830
2017-06-19T05:59:28.106Z,1900
2017-06-19T06:00:16.426Z,1710
2017-06-19T06:01:16.300Z,1590
2017-06-19T06:02:09.650Z,1850
2017-06-19T06:03:02.386Z,1940
2017-06-19T06:04:02.699Z,1830
2017-06-19T06:05:03.526Z,1890
2017-06-19T06:06:14.036Z,1920
2017-06-19T06:07:24.632Z,1915
2017-06-19T06:08:47.750Z,1935
2017-06-19T06:09:49.118Z,1910
2017-06-19T06:20:35.161Z,1965
2017-06-19T06:21:20.632Z,2025
2017-06-19T06:22:03.629Z,1910
2017-06-19T06:22:46.542Z,1800
2017-06-19T06:23:28.926Z,1750
2017-06-19T06:24:12.479Z,1850
2017-06-19T06:24:53.638Z,1920
2017-06-19T06:25:35.409Z,1980
2017-06-19T06:26:16.050Z,2060
2017-06-19T06:26:56.663Z,2040
2017-06-19T06:27:39.701Z,1970
2017-06-19T06:28:20.294Z,1975
2017-06-19T06:29:00.952Z,1985
2017-06-19T06:29:41.546Z,1915
2017-06-19T06:30:22.150Z,1835
2017-06-19T06:31:02.752Z,1950
2017-06-19T06:31:43.393Z,2010
2017-06-19T06:32:23.992Z,1970
2017-06-19T06:33:04.616Z,1975
2017-06-19T06:33:45.196Z,1990
2017-06-19T06:34:25.788Z,1965
2017-06-19T06:35:06.402Z,1950
2017-06-19T06:35:47.109Z,2025
2017-06-19T06:36:27.658Z,2045
2017-06-19T06:37:08.263Z,1925
2017-06-19T06:37:48.884Z,1935
2017-06-19T06:38:29.482Z,1970
2017-06-19T06:39:10.278Z,2070
2017-06-19T06:39:50.881Z,2035
2017-06-19T06:40:31.506Z,1940
2017-06-19T06:41:12.126Z,1900
2017-06-19T06:41:52.719Z,1880
2017-06-19T06:42:33.326Z,1920
2017-06-19T06:43:13.964Z,1930
2017-06-19T06:43:54.630Z,1970
2017-06-19T06:44:35.237Z,2020
2017-06-19T06:45:15.860Z,2010
2017-06-19T06:45:56.588Z,2110
2017-06-19T06:46:37.246Z,2080
2017-06-19T06:47:17.854Z,2040
2017-06-19T06:47:58.455Z,2015
2017-06-19T06:48:39.069Z,2045
2017-06-19T06:49:19.633Z,2025
2017-06-19T06:50:00.215Z,2190
2017-06-19T06:50:40.837Z,2235
2017-06-19T06:51:21.458Z,2255
2017-06-19T06:52:02.058Z,2075
2017-06-19T06:52:42.660Z,2030
2017-06-19T06:53:23.354Z,2070
2017-06-19T06:54:03.988Z,2030
2017-06-19T06:54:44.598Z,2030
2017-06-19T06:55:25.198Z,2030
2017-06-19T06:56:05.806Z,2005
2017-06-19T06:56:46.399Z,1995
2017-06-19T06:57:27.017Z,2080
2017-06-19T06:58:07.606Z,2085
2017-06-19T06:58:48.286Z,2060
2017-06-19T06:59:28.939Z,2125
2017-06-19T07:00:09.559Z,2100
2017-06-19T07:00:50.167Z,2015
2017-06-19T07:01:30.760Z,2015
2017-06-19T07:02:11.413Z,2070
2017-06-19T07:02:52.008Z,1995
2017-06-19T07:03:32.604Z,1930
2017-06-19T07:04:13.311Z,1820
2017-06-19T07:04:53.909Z,1815
2017-06-19T07:05:34.551Z,1735
2017-06-19T07:06:15.127Z,1650
2017-06-19T07:06:55.763Z,1530
2017-06-19T07:07:36.350Z,1420
2017-06-19T07:08:16.947Z,1355
2017-06-19T07:08:57.544Z,1300
2017-06-19T07:09:38.148Z,1250
2017-06-19T07:10:19.008Z,1145
2017-06-19T07:10:59.624Z,1070
2017-06-19T07:11:40.228Z,985
2017-06-19T07:12:20.806Z,910
2017-06-19T07:13:01.649Z,850
2017-06-19T07:13:42.270Z,820
2017-06-19T07:14:22.870Z,785
2017-06-19T07:15:03.497Z,755
2017-06-19T07:15:44.118Z,720
2017-06-19T07:16:24.719Z,680
2017-06-19T07:17:05.327Z,660
2017-06-19T07:17:45.924Z,645
2017-06-19T07:18:26.519Z,645
2017-06-19T07:19:07.118Z,645
2017-06-19T07:19:47.721Z,640
2017-06-19T07:20:28.358Z,630
2017-06-19T07:21:09.012Z,615
2017-06-19T07:21:49.631Z,595
2017-06-19T07:22:30.268Z,580
2017-06-19T07:23:10.915Z,570
2017-06-19T07:23:51.511Z,575
2017-06-19T07:24:32.163Z,580
2017-06-19T07:25:12.752Z,575
2017-06-19T07:25:53.352Z,575
2017-06-19T07:26:33.977Z,575
2017-06-19T07:27:14.543Z,575
2017-06-19T07:27:55.159Z,580
2017-06-19T07:28:35.754Z,585
2017-06-19T07:29:16.424Z,580
2017-06-19T07:29:57.234Z,580
2017-06-19T07:30:37.626Z,570
2017-06-19T07:31:18.294Z,570
2017-06-19T07:31:58.909Z,565
2017-06-19T07:32:39.544Z,560
2017-06-19T07:33:20.138Z,560
2017-06-19T07:34:00.735Z,555
2017-06-19T07:34:41.325Z,545
2017-06-19T07:35:21.925Z,535
2017-06-19T07:36:02.687Z,530
2017-06-19T07:36:43.223Z,530
2017-06-19T07:37:23.812Z,530
2017-06-19T07:38:04.401Z,535
2017-06-19T07:38:44.995Z,525
2017-06-19T07:39:25.644Z,530
2017-06-19T07:40:06.256Z,530
2017-06-19T07:40:46.852Z,530
2017-06-19T07:41:27.439Z,525
2017-06-19T07:42:08.055Z,525
2017-06-19T07:42:48.665Z,525
2017-06-19T07:43:29.263Z,525
2017-06-19T07:44:09.858Z,535
2017-06-19T07:44:50.483Z,535
2017-06-19T07:45:31.160Z,535
2017-06-19T07:46:11.747Z,540
2017-06-19T07:46:52.347Z,545
2017-06-19T07:47:32.944Z,560
2017-06-19T07:48:13.541Z,570
2017-06-19T07:48:54.131Z,570
2017-06-19T07:49:34.736Z,565
2017-06-19T07:50:15.324Z,560
2017-06-19T07:50:55.951Z,560
2017-06-19T07:51:36.587Z,555
2017-06-19T07:52:17.194Z,550
2017-06-19T07:52:57.867Z,560
2017-06-19T07:53:38.461Z,565
2017-06-19T07:54:19.060Z,565
2017-06-19T07:54:59.682Z,565
2017-06-19T07:55:40.346Z,570
2017-06-19T07:56:20.964Z,570
2017-06-19T07:57:01.565Z,560
2017-06-19T07:57:42.186Z,545
2017-06-19T07:58:22.806Z,530
2017-06-19T07:59:03.403Z,520
2017-06-19T07:59:43.998Z,515
2017-06-19T08:00:24.591Z,465
2017-06-19T08:01:05.180Z,400
2017-06-19T08:01:45.815Z,360
2017-06-19T08:02:26.501Z,350
2017-06-19T08:03:07.108Z,355
2017-06-19T08:03:47.704Z,355
2017-06-19T08:04:28.310Z,350
2017-06-19T08:05:08.904Z,360
2017-06-19T08:05:49.542Z,360
2017-06-19T08:06:30.198Z,355
2017-06-19T08:07:10.837Z,350
2017-06-19T08:07:51.422Z,355
2017-06-19T08:08:31.996Z,345
2017-06-19T08:09:12.749Z,345
2017-06-19T08:09:53.341Z,345
2017-06-19T08:10:33.950Z,345
2017-06-19T08:11:14.542Z,345
2017-06-19T08:11:55.130Z,340
2017-06-19T08:12:35.832Z,340
2017-06-19T08:13:16.434Z,330
2017-06-19T08:13:57.038Z,325
2017-06-19T08:14:37.630Z,325
2017-06-19T08:15:18.298Z,315
2017-06-19T08:15:58.895Z,310
2017-06-19T08:16:45.006Z,295
2017-06-19T08:17:29.906Z,300
2017-06-19T08:18:10.501Z,270
2017-06-19T08:18:51.961Z,305
2017-06-19T08:19:32.559Z,305
2017-06-19T08:20:13.143Z,305
2017-06-19T08:20:53.747Z,300
2017-06-19T08:21:34.324Z,300
2017-06-19T08:22:14.918Z,295
2017-06-19T08:22:55.511Z,295
2017-06-19T08:23:36.099Z,295
2017-06-19T08:24:16.716Z,295
2017-06-19T08:24:57.353Z,295
2017-06-19T08:25:37.957Z,295
2017-06-19T08:26:18.603Z,290
2017-06-19T08:26:59.205Z,285
2017-06-19T08:27:39.796Z,285
2017-06-19T08:28:20.382Z,280
2017-06-19T08:29:00.975Z,275
2017-06-19T08:29:41.571Z,275
2017-06-19T08:30:22.176Z,275
2017-06-19T08:31:02.807Z,275
2017-06-19T08:31:43.425Z,275
2017-06-19T08:32:24.037Z,270
2017-06-19T08:33:04.635Z,255
2017-06-19T08:33:45.236Z,150
2017-06-19T08:34:25.839Z,145
2017-06-19T08:35:06.435Z,150
2017-06-19T08:35:47.015Z,150
2017-06-19T08:36:27.614Z,155
2017-06-19T08:37:08.221Z,170
2017-06-19T08:37:48.818Z,180
2017-06-19T08:38:29.422Z,250
2017-06-19T08:39:10.007Z,240
2017-06-19T08:39:50.612Z,155
2017-06-19T08:40:31.209Z,155
2017-06-19T08:41:11.862Z,155
2017-06-19T08:41:52.448Z,155
2017-06-19T08:42:33.047Z,155
2017-06-19T08:43:13.714Z,155
2017-06-19T08:43:54.283Z,155
2017-06-19T08:44:34.959Z,155
2017-06-19T08:45:15.587Z,160
2017-06-19T08:45:56.205Z,165
2017-06-19T08:46:36.801Z,245
2017-06-19T08:47:17.400Z,230
2017-06-19T08:47:57.986Z,220
2017-06-19T08:48:38.589Z,215
2017-06-19T08:49:20.195Z,220
2017-06-19T08:50:00.789Z,225
2017-06-19T08:50:41.374Z,220
2017-06-19T08:51:21.993Z,220
2017-06-19T08:52:03.007Z,220
2017-06-19T08:52:43.619Z,220
2017-06-19T08:53:24.197Z,220
2017-06-19T08:54:04.873Z,220
2017-06-19T08:54:45.454Z,215
2017-06-19T08:55:26.045Z,215
2017-06-19T08:56:06.861Z,215
2017-06-19T08:56:47.413Z,210
2017-06-19T08:57:28.006Z,205
2017-06-19T08:58:08.605Z,200
2017-06-19T08:58:49.507Z,195
2017-06-19T08:59:30.122Z,195
2017-06-19T09:00:12.517Z,190
2017-06-19T09:00:54.964Z,185
2017-06-19T09:01:35.577Z,185
2017-06-19T09:02:16.181Z,180
2017-06-19T09:02:56.761Z,175
2017-06-19T09:03:37.380Z,175
2017-06-19T09:04:17.979Z,175
2017-06-19T09:04:58.562Z,175
2017-06-19T09:05:39.224Z,175
2017-06-19T09:06:19.862Z,180
2017-06-19T09:07:00.442Z,175
2017-06-19T09:07:41.118Z,145
2017-06-19T09:08:21.717Z,125
2017-06-19T09:09:02.327Z,120
2017-06-19T09:09:42.937Z,135
2017-06-19T09:10:23.518Z,135
2017-06-19T09:11:04.167Z,170
2017-06-19T09:11:44.753Z,175
2017-06-19T09:12:25.373Z,170
2017-06-19T09:13:05.974Z,160
2017-06-19T09:13:46.598Z,160
2017-06-19T09:14:27.171Z,155
2017-06-19T09:15:07.772Z,155
2017-06-19T09:15:48.407Z,160
2017-06-19T09:16:29.071Z,160
2017-06-19T09:17:16.224Z,160
2017-06-19T09:17:56.782Z,160
2017-06-19T09:18:37.411Z,160
2017-06-19T09:19:18.006Z,155
2017-06-19T09:19:58.590Z,150
2017-06-19T09:20:39.201Z,150
2017-06-19T09:21:19.986Z,145
2017-06-19T09:22:00.581Z,145
2017-06-19T09:22:41.178Z,145
2017-06-19T09:23:21.788Z,145
2017-06-19T09:24:02.379Z,145
2017-06-19T09:24:43.043Z,150
2017-06-19T09:25:23.625Z,145
2017-06-19T09:26:04.418Z,145
2017-06-19T09:26:45.040Z,140
2017-06-19T09:27:25.645Z,140
2017-06-19T09:28:06.227Z,140
2017-06-19T09:28:46.916Z,140
2017-06-19T09:29:27.522Z,140
2017-06-19T09:30:08.312Z,145
2017-06-19T09:30:48.914Z,145
2017-06-19T09:31:29.491Z,145
2017-06-19T09:32:10.085Z,140
2017-06-19T09:32:50.742Z,145
2017-06-19T09:33:31.332Z,145
2017-06-19T09:34:11.932Z,145
2017-06-19T09:34:52.530Z,145
2017-06-19T09:35:33.142Z,145
2017-06-19T09:36:13.772Z,145
2017-06-19T09:36:54.379Z,145
2017-06-19T09:37:34.989Z,145
2017-06-19T09:38:15.595Z,145
2017-06-19T09:38:56.218Z,145
2017-06-19T09:39:36.809Z,145
2017-06-19T09:40:17.519Z,145
2017-06-19T09:40:58.107Z,145
2017-06-19T09:41:38.695Z,145
2017-06-19T09:42:19.311Z,145
2017-06-19T09:42:59.893Z,145
2017-06-19T09:43:40.498Z,145
2017-06-19T09:44:21.088Z,145
2017-06-19T09:45:01.677Z,145
2017-06-19T09:45:42.269Z,150
2017-06-19T09:46:33.123Z,150
2017-06-19T09:47:13.711Z,150
2017-06-19T09:47:54.365Z,155
2017-06-19T09:48:34.987Z,150